Time;durP1;ratioP1;P1;durP2;ratioP2;P2;SDS_P1;SDS_P2;PMS_P1;PMS_P2;Temp;Humidity;BMP_temperature;BMP_pressure;BME280_temperature;BME280_humidity;BME280_pressure;Samples;Min_cycle;Max_cycle;Signal;HPM_P1;HPM_P2
2021/06/18 00:00:15;;;;;;;12.00;2.13;;;;;;;19.69;40.38;100313.72;5088137;28;20480;-69
2021/06/18 00:02:41;;;;;;;6.82;1.83;;;;;;;19.60;40.95;100331.88;5086772;28;20111;-69
2021/06/18 00:05:11;;;;;;;4.22;2.47;;;;;;;19.47;41.39;100342.59;5053380;28;20040;-68
2021/06/18 00:07:37;;;;;;;6.77;2.00;;;;;;;19.36;41.50;100342.31;5055845;28;20048;-68
2021/06/18 00:10:07;;;;;;;10.18;2.20;;;;;;;19.10;42.20;100309.78;5072372;28;20133;-68
2021/06/18 00:12:33;;;;;;;11.45;3.67;;;;;;;19.07;42.98;100340.63;5090144;28;20040;-68
2021/06/18 00:15:00;;;;;;;5.35;2.70;;;;;;;19.00;43.23;100344.31;5089602;28;20396;-68
2021/06/18 00:17:27;;;;;;;4.38;1.90;;;;;;;18.94;42.72;100342.41;5056773;28;20033;-68
2021/06/18 00:19:53;;;;;;;13.35;3.85;;;;;;;18.87;44.03;100347.72;5094009;28;20048;-68
2021/06/18 00:22:19;;;;;;;7.55;2.60;;;;;;;18.77;43.52;100341.84;5058830;28;20036;-67
2021/06/18 00:24:44;;;;;;;7.97;2.65;;;;;;;18.75;43.62;100341.19;5058840;28;20098;-69
2021/06/18 00:27:10;;;;;;;9.02;2.50;;;;;;;18.64;43.87;100332.78;5092579;28;20051;-69
2021/06/18 00:29:36;;;;;;;7.80;2.42;;;;;;;18.70;44.00;100354.38;5092269;28;20197;-69
2021/06/18 00:32:03;;;;;;;7.13;2.70;;;;;;;18.64;44.19;100355.16;5092469;28;20044;-68
2021/06/18 00:34:29;;;;;;;6.80;2.13;;;;;;;18.60;44.11;100361.97;5059193;28;20945;-69
2021/06/18 00:36:55;;;;;;;6.15;2.60;;;;;;;18.55;44.69;100361.69;5091805;28;20052;-69
2021/06/18 00:39:21;;;;;;;6.05;2.80;;;;;;;18.41;44.77;100351.81;5075355;28;20101;-69
2021/06/18 00:41:47;;;;;;;9.70;2.78;;;;;;;18.48;44.89;100376.09;5091915;28;20048;-68
2021/06/18 00:44:13;;;;;;;6.97;2.72;;;;;;;18.44;45.07;100371.13;5058585;28;20126;-68
2021/06/18 00:46:39;;;;;;;8.05;3.28;;;;;;;18.41;45.80;100374.19;5075102;28;20460;-69
2021/06/18 00:49:10;;;;;;;15.80;3.95;;;;;;;18.36;46.13;100383.78;5058474;28;20078;-68
2021/06/18 00:51:38;;;;;;;12.20;4.07;;;;;;;18.19;46.59;100359.00;5092055;28;20385;-68
2021/06/18 00:54:04;;;;;;;6.82;3.13;;;;;;;18.30;46.24;100379.19;5058551;28;20058;-68
2021/06/18 00:56:31;;;;;;;10.88;3.30;;;;;;;18.27;46.15;100382.25;5075078;28;20047;-68
2021/06/18 00:58:57;;;;;;;13.93;5.43;;;;;;;18.25;46.99;100390.50;5091776;28;20047;-68
2021/06/18 01:01:23;;;;;;;7.30;2.72;;;;;;;18.11;46.48;100361.78;5074886;28;20047;-68
2021/06/18 01:03:49;;;;;;;10.35;3.30;;;;;;;18.23;46.74;100372.91;5057864;28;20101;-68
2021/06/18 01:06:18;;;;;;;4.70;2.97;;;;;;;18.23;46.30;100383.66;5092901;28;20047;-68
2021/06/18 01:08:47;;;;;;;6.95;2.85;;;;;;;18.26;46.23;100380.59;5058047;28;20495;-68
2021/06/18 01:11:50;;;;;;;11.48;3.45;;;;;;;18.28;46.31;100386.63;5057929;28;20039;-68
2021/06/18 01:14:25;;;;;;;10.55;3.65;;;;;;;18.25;47.20;100387.81;5074652;28;20547;-68
2021/06/18 01:17:21;;;;;;;8.30;3.30;;;;;;;18.25;47.12;100387.81;5074577;28;20063;-68
2021/06/18 01:20:14;;;;;;;10.57;2.95;;;;;;;18.28;46.03;100386.63;5057766;28;20040;-68
2021/06/18 01:22:41;;;;;;;5.72;2.70;;;;;;;18.33;45.36;100390.41;5074497;28;20055;-68
2021/06/18 01:25:26;;;;;;;11.48;2.88;;;;;;;18.40;45.37;100385.13;5091488;28;20569;-68
2021/06/18 01:28:02;;;;;;;9.10;3.25;;;;;;;18.44;45.66;100378.34;5074200;28;20043;-68
2021/06/18 01:30:30;;;;;;;6.82;2.88;;;;;;;18.46;45.05;100381.69;5056637;28;20068;-68
2021/06/18 01:33:03;;;;;;;8.07;2.80;;;;;;;18.49;45.11;100386.69;5092494;28;20052;-68
2021/06/18 01:35:50;;;;;;;10.68;2.90;;;;;;;18.52;45.64;100383.59;5091145;28;20070;-68
2021/06/18 01:38:17;;;;;;;7.95;2.92;;;;;;;18.53;45.53;100387.94;5057269;28;20050;-68
2021/06/18 01:40:44;;;;;;;9.02;3.10;;;;;;;18.52;45.90;100388.97;5074159;28;20135;-68
2021/06/18 01:43:12;;;;;;;10.57;4.00;;;;;;;18.52;47.12;100390.84;5091324;28;20050;-68
2021/06/18 01:45:40;;;;;;;5.82;3.10;;;;;;;18.48;46.48;100393.91;5057465;28;20039;-69
2021/06/18 01:48:06;;;;;;;9.25;3.10;;;;;;;18.45;46.35;100396.16;5074383;28;20446;-68
2021/06/18 01:50:33;;;;;;;8.88;3.00;;;;;;;18.45;46.28;100405.03;5091221;28;20036;-68
2021/06/18 01:53:11;;;;;;;6.25;2.40;;;;;;;18.44;45.61;100407.94;5073957;28;20134;-68
2021/06/18 01:55:39;;;;;;;12.00;2.92;;;;;;;18.33;46.00;100392.25;5074006;28;20131;-68
2021/06/18 01:58:05;;;;;;;12.35;3.10;;;;;;;18.42;46.23;100418.03;5074083;28;20051;-68
2021/06/18 02:00:39;;;;;;;27.55;4.80;;;;;;;18.42;45.79;100418.03;5090654;28;20052;-68
2021/06/18 02:03:08;;;;;;;19.30;3.25;;;;;;;18.38;46.06;100411.38;5074758;28;20127;-68
2021/06/18 02:05:37;;;;;;;13.65;3.47;;;;;;;18.39;45.70;100421.94;5073903;28;20054;-68
2021/06/18 02:08:07;;;;;;;14.15;3.92;;;;;;;18.39;45.83;100426.47;5073743;28;20571;-67
2021/06/18 02:10:39;;;;;;;22.25;4.10;;;;;;;18.38;46.09;100430.22;5074432;28;20444;-68
2021/06/18 02:13:07;;;;;;;27.88;3.92;;;;;;;18.37;46.18;100428.50;5092162;28;20048;-68
2021/06/18 02:15:35;;;;;;;25.25;4.68;;;;;;;18.38;46.27;100430.22;5073785;28;20047;-68
2021/06/18 02:18:02;;;;;;;11.32;3.20;;;;;;;18.38;46.19;100427.50;5090194;28;20484;-68
2021/06/18 02:20:28;;;;;;;9.80;2.95;;;;;;;18.39;45.81;100434.56;5073554;28;20048;-68
2021/06/18 02:22:55;;;;;;;12.23;3.60;;;;;;;18.42;46.23;100442.25;5056867;28;20050;-68
2021/06/18 02:25:22;;;;;;;9.10;2.78;;;;;;;18.41;45.85;100441.44;5073259;28;20067;-69
2021/06/18 02:27:48;;;;;;;11.70;3.65;;;;;;;18.41;46.17;100436.06;5056672;28;20044;-68
2021/06/18 02:30:15;;;;;;;9.15;3.65;;;;;;;18.40;46.02;100441.63;5056543;28;20097;-68
2021/06/18 02:32:42;;;;;;;9.63;3.22;;;;;;;18.38;46.23;100440.97;5056359;28;20040;-69
2021/06/18 02:35:09;;;;;;;10.90;3.20;;;;;;;18.34;46.15;100431.59;5073265;28;20051;-68
2021/06/18 02:37:35;;;;;;;7.15;3.25;;;;;;;18.34;46.04;100439.66;5073287;28;20135;-68
2021/06/18 02:40:03;;;;;;;6.72;3.28;;;;;;;18.34;46.18;100456.59;5089775;28;20079;-68
2021/06/18 02:42:29;;;;;;;5.63;3.15;;;;;;;18.36;46.13;100457.25;5089994;28;20403;-68
2021/06/18 02:44:55;;;;;;;7.82;2.95;;;;;;;18.39;45.82;100462.28;5072834;28;20093;-68
2021/06/18 02:47:40;;;;;;;9.45;2.75;;;;;;;18.40;45.65;100453.19;5073187;28;20040;-68
2021/06/18 02:50:36;;;;;;;7.45;4.07;;;;;;;18.43;46.33;100454.69;5072856;28;20518;-68
2021/06/18 02:53:32;;;;;;;9.90;3.65;;;;;;;18.45;45.90;100455.34;5091045;28;20059;-68
2021/06/18 02:56:17;;;;;;;7.85;3.58;;;;;;;18.53;45.82;100460.59;5072788;28;20059;-68
2021/06/18 02:58:50;;;;;;;7.63;2.45;;;;;;;18.45;45.34;100455.34;5089488;28;20101;-69
2021/06/18 03:01:17;;;;;;;8.13;2.60;;;;;;;18.60;45.18;100477.66;5072850;28;20044;-69
2021/06/18 03:03:44;;;;;;;8.40;3.30;;;;;;;18.63;45.85;100477.28;5073011;28;20056;-69
2021/06/18 03:06:11;;;;;;;10.15;3.15;;;;;;;18.67;45.39;100470.50;5089769;28;20040;-68
2021/06/18 03:08:46;;;;;;;5.82;2.50;;;;;;;18.69;45.28;100479.22;5089584;28;20044;-68
2021/06/18 03:11:12;;;;;;;5.15;2.90;;;;;;;18.71;45.07;100476.34;5089704;28;20059;-69
2021/06/18 03:13:44;;;;;;;7.68;2.80;;;;;;;18.71;44.70;100479.88;5072666;28;20042;-69
2021/06/18 03:16:11;;;;;;;6.85;3.25;;;;;;;18.72;44.67;100475.31;5089602;28;20515;-68
2021/06/18 03:18:38;;;;;;;5.30;3.33;;;;;;;18.71;44.64;100479.88;5089231;28;20040;-68
2021/06/18 03:21:06;;;;;;;6.15;2.55;;;;;;;18.66;44.51;100463.44;5072554;28;20044;-68
2021/06/18 03:23:32;;;;;;;10.00;2.72;;;;;;;18.71;44.60;100471.78;5055516;28;20044;-68
2021/06/18 03:25:58;;;;;;;12.52;2.92;;;;;;;18.72;44.64;100473.44;5055526;28;20044;-69
2021/06/18 03:28:25;;;;;;;7.65;2.50;;;;;;;18.66;44.58;100458.06;5072551;28;20504;-68
2021/06/18 03:30:51;;;;;;;8.13;2.60;;;;;;;18.81;44.18;100475.00;5089091;28;20131;-69
2021/06/18 03:33:18;;;;;;;8.35;2.50;;;;;;;18.84;44.24;100461.16;5090079;28;20255;-69
2021/06/18 03:35:46;;;;;;;5.57;2.63;;;;;;;18.89;44.11;100456.03;5071833;28;20079;-69
2021/06/18 03:38:12;;;;;;;6.00;2.42;;;;;;;18.93;44.02;100457.31;5088582;28;20461;-69
2021/06/18 03:40:39;;;;;;;9.98;2.60;;;;;;;18.98;43.62;100457.56;5087975;28;20131;-68
2021/06/18 03:43:05;;;;;;;3.35;1.73;;;;;;;19.03;43.34;100457.00;5087701;28;20105;-68
2021/06/18 03:45:32;;;;;;;8.18;2.60;;;;;;;19.06;43.87;100456.63;5054257;28;20059;-69
2021/06/18 03:48:00;;;;;;;5.13;1.80;;;;;;;19.08;42.89;100460.78;5054303;28;20032;-68
2021/06/18 03:50:26;;;;;;;6.47;2.40;;;;;;;19.14;43.36;100469.97;5087835;28;20469;-69
2021/06/18 03:52:52;;;;;;;3.78;2.00;;;;;;;19.15;43.28;100471.63;5072680;28;20129;-69
2021/06/18 03:55:18;;;;;;;4.90;1.80;;;;;;;19.18;42.58;100474.75;5074594;28;20690;-69
2021/06/18 03:57:45;;;;;;;6.25;2.80;;;;;;;19.21;43.75;100473.53;5058078;28;20177;-69
2021/06/18 04:00:11;;;;;;;9.38;2.65;;;;;;;19.23;44.02;100475.03;5091642;28;20047;-69
2021/06/18 04:02:41;;;;;;;5.63;2.50;;;;;;;19.26;44.11;100479.19;5074894;28;20411;-69
2021/06/18 04:05:08;;;;;;;8.18;2.30;;;;;;;19.13;43.38;100455.66;5057830;28;20075;-69
2021/06/18 04:07:34;;;;;;;5.43;2.42;;;;;;;19.19;42.98;100476.41;5091322;28;20035;-69
2021/06/18 04:10:01;;;;;;;8.73;3.20;;;;;;;19.33;43.78;100486.31;5091085;28;20100;-68
2021/06/18 04:12:29;;;;;;;11.00;3.05;;;;;;;19.33;43.66;100480.94;5091070;28;20056;-68
2021/06/18 04:14:56;;;;;;;7.55;3.47;;;;;;;19.41;43.50;100491.59;5091030;28;20035;-69
2021/06/18 04:17:22;;;;;;;12.68;3.42;;;;;;;19.40;43.37;100491.78;5057810;28;20212;-69
2021/06/18 04:19:48;;;;;;;11.05;3.45;;;;;;;19.50;43.78;100503.88;5057453;28;20036;-69
2021/06/18 04:22:18;;;;;;;12.10;3.97;;;;;;;19.55;44.07;100501.44;5092767;28;20040;-69
2021/06/18 04:24:44;;;;;;;11.32;3.85;;;;;;;19.58;44.18;100495.66;5091078;28;20051;-68
2021/06/18 04:27:10;;;;;;;10.48;3.60;;;;;;;19.62;43.66;100496.94;5073977;28;20044;-68
2021/06/18 04:29:35;;;;;;;10.52;2.75;;;;;;;19.68;43.18;100506.13;5057310;28;20121;-68
2021/06/18 04:32:01;;;;;;;14.18;3.38;;;;;;;19.73;43.60;100503.66;5090725;28;20047;-69
2021/06/18 04:34:27;;;;;;;10.50;2.60;;;;;;;19.79;43.29;100502.84;5074233;28;20127;-68
2021/06/18 04:36:53;;;;;;;4.45;2.70;;;;;;;19.85;43.51;100508.31;5051220;28;191110;-69
2021/06/18 04:39:18;;;;;;;9.88;3.45;;;;;;;19.92;44.02;100505.66;5091546;28;20048;-69
2021/06/18 04:41:45;;;;;;;9.60;3.17;;;;;;;19.90;43.67;100478.06;5075179;28;20047;-69
2021/06/18 04:44:11;;;;;;;9.25;2.30;;;;;;;20.06;41.48;100505.53;5058427;28;20040;-69
2021/06/18 04:46:36;;;;;;;7.03;2.95;;;;;;;20.16;42.62;100507.91;5084879;28;20412;-70
2021/06/18 04:49:02;;;;;;;11.50;3.67;;;;;;;20.22;42.52;100503.59;5073468;28;20137;-69
2021/06/18 04:51:28;;;;;;;8.73;3.38;;;;;;;20.30;43.37;100519.59;5091113;28;20070;-70
2021/06/18 04:53:54;;;;;;;12.23;3.55;;;;;;;20.37;43.53;100515.09;5057648;28;20044;-69
2021/06/18 04:56:20;;;;;;;8.10;3.03;;;;;;;20.41;42.35;100516.34;5057447;28;20063;-69
2021/06/18 04:58:46;;;;;;;8.38;3.00;;;;;;;20.48;42.77;100518.06;5091433;28;20043;-69
2021/06/18 05:01:12;;;;;;;9.13;4.05;;;;;;;20.55;43.46;100518.09;5057695;28;20530;-69
2021/06/18 05:03:37;;;;;;;17.05;3.55;;;;;;;20.55;43.71;100504.59;5090726;28;20081;-69
2021/06/18 05:06:03;;;;;;;9.27;3.40;;;;;;;20.61;44.02;100496.53;5091057;28;20067;-69
2021/06/18 05:08:29;;;;;;;11.77;3.17;;;;;;;20.83;43.09;100518.84;5073933;28;20036;-69
2021/06/18 05:10:55;;;;;;;11.23;3.17;;;;;;;20.91;43.53;100513.25;5074108;28;20116;-69
2021/06/18 05:13:21;;;;;;;9.65;3.20;;;;;;;20.97;43.68;100513.28;5090862;28;20066;-69
2021/06/18 05:15:47;;;;;;;6.25;2.05;;;;;;;21.01;42.44;100519.97;5090850;28;20040;-69
2021/06/18 05:18:12;;;;;;;5.50;1.90;;;;;;;21.13;41.41;100526.44;5057436;28;20070;-69
2021/06/18 05:20:38;;;;;;;6.82;1.83;;;;;;;21.18;41.10;100523.94;5074000;28;20052;-70
2021/06/18 05:23:04;;;;;;;5.38;2.10;;;;;;;21.25;41.26;100513.97;5057537;28;20051;-69
2021/06/18 05:25:30;;;;;;;4.55;1.90;;;;;;;21.31;41.03;100518.56;5073927;28;20044;-69
2021/06/18 05:27:55;;;;;;;4.65;1.92;;;;;;;21.38;40.52;100521.28;5056914;28;20130;-69
2021/06/18 05:30:21;;;;;;;5.97;1.50;;;;;;;21.49;39.60;100520.66;5090503;28;20040;-69
2021/06/18 05:32:48;;;;;;;7.40;1.55;;;;;;;21.54;39.20;100526.28;5073970;28;20043;-69
2021/06/18 05:35:14;;;;;;;2.53;1.75;;;;;;;21.61;39.43;100519.00;5073838;28;20056;-69
2021/06/18 05:37:40;;;;;;;5.53;1.50;;;;;;;21.65;39.73;100522.94;5091552;28;20115;-70
2021/06/18 05:40:06;;;;;;;10.35;1.80;;;;;;;21.70;39.68;100518.59;5073133;28;20097;-69
2021/06/18 05:42:33;;;;;;;5.00;2.22;;;;;;;21.65;39.99;100506.72;5072816;28;20514;-69
2021/06/18 05:44:58;;;;;;;6.47;1.80;;;;;;;21.77;40.06;100513.22;5073074;28;20127;-69
2021/06/18 05:47:24;;;;;;;4.72;1.40;;;;;;;21.72;39.31;100499.44;5089839;28;20138;-69
2021/06/18 05:49:50;;;;;;;5.93;1.48;;;;;;;21.84;37.96;100516.72;5056322;28;20123;-69
2021/06/18 05:52:16;;;;;;;4.00;1.60;;;;;;;21.91;38.70;100516.75;5090498;28;20081;-69
2021/06/18 05:54:42;;;;;;;5.07;1.77;;;;;;;21.95;38.89;100507.16;5091426;28;20521;-69
2021/06/18 05:57:08;;;;;;;5.85;1.30;;;;;;;22.00;38.30;100505.50;5089351;28;20131;-68
2021/06/18 05:59:33;;;;;;;5.90;1.40;;;;;;;22.06;38.52;100511.91;5056292;28;20048;-68
2021/06/18 06:01:59;;;;;;;3.83;1.70;;;;;;;22.16;39.43;100507.72;5056707;28;20035;-69
2021/06/18 06:04:25;;;;;;;3.40;1.58;;;;;;;22.27;38.68;100509.78;5039762;28;20044;-68
2021/06/18 06:06:51;;;;;;;6.43;1.70;;;;;;;22.36;39.01;100511.22;5073087;28;20050;-69
2021/06/18 06:09:16;;;;;;;2.65;1.52;;;;;;;22.36;37.08;100496.84;5072952;28;20086;-69
2021/06/18 06:11:42;;;;;;;5.75;1.27;;;;;;;22.55;36.78;100513.06;5056458;28;20138;-69
2021/06/18 06:14:15;;;;;;;2.17;1.13;;;;;;;22.62;34.59;100518.44;5089576;28;20036;-69
2021/06/18 06:16:41;;;;;;;10.48;1.88;;;;;;;22.64;35.96;100516.34;5056842;28;20052;-68
2021/06/18 06:19:07;;;;;;;6.30;1.92;;;;;;;22.72;35.59;100508.00;5089445;28;20048;-72
2021/06/18 06:21:33;;;;;;;3.72;1.50;;;;;;;22.85;36.49;100514.19;5039353;28;20040;-68
2021/06/18 06:23:58;;;;;;;4.97;1.27;;;;;;;22.98;35.22;100514.13;5090602;28;20040;-71
2021/06/18 06:26:24;;;;;;;4.75;1.00;;;;;;;23.06;32.48;100516.56;5056171;28;20039;-70
2021/06/18 06:28:50;;;;;;;3.33;0.90;;;;;;;23.08;32.58;100506.34;5072490;28;20403;-68
2021/06/18 06:31:16;;;;;;;4.00;1.02;;;;;;;23.16;32.24;100511.50;5090664;28;20032;-68
2021/06/18 06:33:41;;;;;;;4.32;1.20;;;;;;;23.24;32.65;100514.00;5072937;28;20048;-68
2021/06/18 06:36:08;;;;;;;1.58;1.20;;;;;;;23.36;32.85;100510.59;5072251;28;20048;-69
2021/06/18 06:38:35;;;;;;;4.00;1.05;;;;;;;23.49;33.02;100505.06;5072482;28;20185;-69
2021/06/18 06:41:01;;;;;;;2.90;1.10;;;;;;;23.63;34.04;100514.75;5055859;28;20044;-69
2021/06/18 06:43:26;;;;;;;5.78;1.40;;;;;;;23.71;34.96;100518.00;5055622;28;20050;-69
2021/06/18 06:45:52;;;;;;;2.17;1.17;;;;;;;23.70;33.75;100499.22;5055966;28;20046;-69
2021/06/18 06:48:18;;;;;;;4.65;1.25;;;;;;;23.90;33.75;100514.28;5071952;28;20126;-69
2021/06/18 06:50:44;;;;;;;3.08;1.20;;;;;;;24.00;32.82;100514.63;5090681;28;20122;-68
2021/06/18 06:53:10;;;;;;;4.32;1.30;;;;;;;24.12;32.75;100510.16;5055107;28;20048;-68
2021/06/18 06:55:36;;;;;;;2.65;1.50;;;;;;;24.19;33.05;100512.78;5069769;28;20039;-69
2021/06/18 06:58:04;;;;;;;2.70;1.23;;;;;;;24.30;32.89;100507.44;5069871;28;20048;-68
2021/06/18 07:00:30;;;;;;;2.65;1.10;;;;;;;24.42;32.67;100512.94;5087944;28;20040;-68
2021/06/18 07:02:55;;;;;;;4.97;1.20;;;;;;;24.51;32.64;100511.56;5070185;28;20054;-68
2021/06/18 07:05:21;;;;;;;2.92;1.10;;;;;;;24.53;30.98;100498.59;5070100;28;20039;-68
2021/06/18 07:07:47;;;;;;;1.77;1.30;;;;;;;24.79;31.45;100526.31;5087717;28;20040;-69
2021/06/18 07:10:13;;;;;;;5.97;1.20;;;;;;;24.98;31.90;100520.84;5089068;28;20047;-68
2021/06/18 07:12:39;;;;;;;2.33;1.33;;;;;;;25.14;31.61;100521.00;5089128;28;20089;-68
2021/06/18 07:15:05;;;;;;;6.43;1.13;;;;;;;25.18;30.36;100500.47;5072000;28;20123;-68
2021/06/18 07:17:31;;;;;;;6.57;1.23;;;;;;;25.38;30.30;100514.63;5088544;28;20068;-68
2021/06/18 07:19:57;;;;;;;5.43;1.27;;;;;;;25.43;29.99;100509.31;5072603;28;20131;-68
2021/06/18 07:22:24;;;;;;;6.43;1.60;;;;;;;25.68;30.00;100530.91;5089001;28;20043;-67
2021/06/18 07:24:50;;;;;;;7.53;1.55;;;;;;;25.71;29.85;100508.66;5090473;28;20048;-68
2021/06/18 07:27:17;;;;;;;4.95;1.63;;;;;;;26.02;29.25;100519.22;5058549;28;20040;-68
2021/06/18 07:29:44;;;;;;;9.45;1.55;;;;;;;26.70;28.85;100522.13;5077195;28;20134;-67
2021/06/18 07:32:10;;;;;;;8.43;1.55;;;;;;;27.65;27.75;100513.03;5093441;28;20093;-68
2021/06/18 07:34:36;;;;;;;4.05;1.48;;;;;;;28.74;26.67;100510.31;5042967;28;20044;-68
2021/06/18 07:37:03;;;;;;;4.65;1.40;;;;;;;29.92;24.69;100517.53;5093347;28;20483;-68
2021/06/18 07:39:29;;;;;;;7.15;1.60;;;;;;;31.08;22.94;100508.84;5076514;28;20044;-68
2021/06/18 07:41:55;;;;;;;5.28;1.25;;;;;;;32.24;21.42;100505.06;5076477;28;20138;-68
2021/06/18 07:44:21;;;;;;;9.35;1.55;;;;;;;33.56;20.06;100506.06;5076229;28;20472;-68
2021/06/18 07:46:46;;;;;;;8.23;1.60;;;;;;;34.34;18.86;100504.78;5094039;28;20067;-68
2021/06/18 07:49:12;;;;;;;8.02;1.52;;;;;;;35.09;18.02;100479.00;5076417;28;20082;-68
2021/06/18 07:51:38;;;;;;;8.13;1.60;;;;;;;36.99;16.20;100504.31;5076307;28;20073;-68
2021/06/18 07:54:04;;;;;;;8.52;1.50;;;;;;;38.80;14.75;100488.53;5083513;28;20027;-70
2021/06/18 07:56:33;;;;;;;5.93;1.55;;;;;;;40.23;13.09;100509.06;5095649;28;20050;-70
2021/06/18 07:58:59;;;;;;;6.00;1.23;;;;;;;40.64;12.60;100513.16;5113239;28;20089;-70
2021/06/18 08:01:25;;;;;;;5.80;1.30;;;;;;;41.81;11.65;100524.94;5095888;28;20290;-71
2021/06/18 08:03:52;;;;;;;10.43;1.40;;;;;;;42.50;11.26;100503.47;5079115;28;20051;-71
2021/06/18 08:06:18;;;;;;;5.22;1.48;;;;;;;43.71;10.03;100493.66;5095712;28;20063;-70
2021/06/18 08:08:44;;;;;;;6.95;1.30;;;;;;;42.55;10.39;100500.44;5062667;28;20474;-70
2021/06/18 08:11:10;;;;;;;4.25;1.52;;;;;;;43.34;10.58;100492.16;5114206;28;20046;-70
2021/06/18 08:13:36;;;;;;;7.05;1.65;;;;;;;44.65;9.67;100486.97;5095450;28;20047;-70
2021/06/18 08:16:04;;;;;;;5.70;1.50;;;;;;;45.68;8.98;100492.81;5095638;28;20079;-70
2021/06/18 08:18:29;;;;;;;8.13;1.55;;;;;;;45.64;9.03;100480.72;5112276;28;20044;-70
2021/06/18 08:20:55;;;;;;;4.28;1.30;;;;;;;46.13;8.82;100493.72;5095559;28;20043;-71
2021/06/18 08:23:21;;;;;;;7.80;1.40;;;;;;;46.15;9.42;100484.91;5112402;28;20495;-72
2021/06/18 08:25:49;;;;;;;8.07;1.40;;;;;;;46.27;8.73;100476.31;5078946;28;20035;-72
2021/06/18 08:28:15;;;;;;;6.68;1.33;;;;;;;46.98;8.25;100484.66;5096109;28;20495;-72
2021/06/18 08:30:41;;;;;;;10.38;1.40;;;;;;;48.01;7.96;100472.66;5078376;28;20039;-71
2021/06/18 08:33:07;;;;;;;9.20;1.60;;;;;;;48.76;7.42;100470.06;5078117;28;20047;-71
2021/06/18 08:35:33;;;;;;;7.25;2.30;;;;;;;49.51;7.48;100475.66;5078114;28;20142;-71
2021/06/18 08:38:01;;;;;;;8.25;1.50;;;;;;;49.91;7.13;100475.38;5111449;28;20053;-71
2021/06/18 08:40:29;;;;;;;5.35;1.20;;;;;;;49.95;6.75;100469.69;5112481;28;20051;-71
2021/06/18 08:42:56;;;;;;;9.63;1.35;;;;;;;50.19;6.73;100471.78;5112318;28;20039;-71
2021/06/18 08:45:22;;;;;;;5.88;1.10;;;;;;;50.37;6.75;100472.59;5061231;28;20039;-71
2021/06/18 08:47:50;;;;;;;4.32;1.20;;;;;;;50.13;5.96;100467.75;5078254;28;20142;-70
2021/06/18 08:50:22;;;;;;;;;;;;;;;48.62;6.59;100469.97;5096086;28;20047;-71
2021/06/18 08:52:52;;;;;;;1.83;0.93;;;;;;;48.16;7.23;100458.31;5096159;28;19962;-71
2021/06/18 08:55:20;;;;;;;6.50;1.13;;;;;;;48.62;6.49;100459.50;5095041;28;20503;-71
2021/06/18 08:57:52;;;;;;;4.40;1.20;;;;;;;49.07;6.23;100467.41;5112096;28;20040;-71
2021/06/18 09:00:19;;;;;;;5.13;1.27;;;;;;;49.59;6.19;100466.00;5111927;28;20159;-71
2021/06/18 09:02:45;;;;;;;9.88;1.38;;;;;;;50.24;5.62;100465.72;5095222;28;20055;-71
2021/06/18 09:05:13;;;;;;;9.55;1.42;;;;;;;50.87;5.04;100467.66;5094828;28;20067;-72
2021/06/18 09:07:51;;;;;;;12.77;1.80;;;;;;;51.66;5.16;100453.56;5095030;28;20636;-72
2021/06/18 09:10:33;;;;;;;5.67;1.17;;;;;;;52.09;4.76;100457.72;5112927;28;20061;-72
2021/06/18 09:13:09;;;;;;;5.03;0.90;;;;;;;52.59;4.58;100453.22;5095085;28;20092;-71
2021/06/18 09:15:37;;;;;;;6.78;1.48;;;;;;;52.74;4.53;100453.88;5094516;28;20058;-71
2021/06/18 09:18:28;;;;;;;5.63;0.90;;;;;;;53.07;4.57;100438.91;5094494;28;20047;-71
2021/06/18 09:21:12;;;;;;;10.57;0.90;;;;;;;53.45;4.52;100440.44;5101403;28;20664;-72
2021/06/18 09:23:43;;;;;;;2.20;1.10;;;;;;;53.62;4.44;100436.53;5077561;28;20129;-74
2021/06/18 09:26:24;;;;;;;8.10;0.90;;;;;;;53.72;4.22;100435.56;5094407;28;20046;-74
2021/06/18 09:28:59;;;;;;;3.80;1.00;;;;;;;53.72;3.99;100440.44;5111299;28;20046;-73
2021/06/18 09:31:52;;;;;;;5.00;1.10;;;;;;;53.48;4.38;100445.25;5076994;28;20054;-74
2021/06/18 09:35:01;;;;;;;4.15;1.10;;;;;;;52.08;4.84;100427.78;5090293;28;20042;-74
2021/06/18 09:37:38;;;;;;;5.60;1.10;;;;;;;52.10;5.04;100425.31;5069824;28;20047;-74
2021/06/18 09:40:07;;;;;;;8.02;1.05;;;;;;;51.42;5.19;100426.19;5110555;28;20071;-73
2021/06/18 09:42:35;;;;;;;5.25;1.00;;;;;;;51.10;5.57;100409.34;5112179;28;20043;-73
2021/06/18 09:45:06;;;;;;;9.10;1.20;;;;;;;51.53;5.20;100418.44;5111007;28;20131;-73
2021/06/18 09:47:31;;;;;;;4.95;1.20;;;;;;;51.99;4.82;100416.91;5110601;28;20058;-72
2021/06/18 09:49:58;;;;;;;6.20;1.20;;;;;;;52.68;4.75;100410.97;5092559;28;20039;-73
2021/06/18 09:52:25;;;;;;;3.80;1.20;;;;;;;53.08;4.73;100407.25;5094004;28;20089;-72
2021/06/18 09:54:55;;;;;;;3.45;1.17;;;;;;;53.41;4.62;100411.25;5076861;28;20044;-73
2021/06/18 09:57:41;;;;;;;6.72;1.92;;;;;;;53.45;4.55;100398.59;5110276;28;20043;-81
2021/06/18 10:00:12;;;;;;;13.75;2.03;;;;;;;53.48;4.85;100411.16;5076145;28;20517;-77
2021/06/18 10:02:40;;;;;;;3.25;0.80;;;;;;;51.42;5.26;100409.19;5093389;28;20084;-73
2021/06/18 10:05:14;;;;;;;5.70;1.45;;;;;;;49.95;6.17;100399.84;5093556;28;20043;-73
2021/06/18 10:07:41;;;;;;;5.05;1.08;;;;;;;50.07;5.71;100405.13;5110204;28;20050;-71
2021/06/18 10:10:12;;;;;;;4.10;1.00;;;;;;;50.32;5.89;100403.09;5093509;28;20047;-71
2021/06/18 10:12:39;;;;;;;5.88;1.13;;;;;;;49.79;5.51;100410.78;5093414;28;20040;-74
2021/06/18 10:15:08;;;;;;;7.03;1.17;;;;;;;47.95;6.95;100384.06;5111168;28;20047;-73
2021/06/18 10:17:36;;;;;;;5.65;1.40;;;;;;;48.51;6.93;100387.25;5092878;28;20043;-71
2021/06/18 10:20:07;;;;;;;6.10;1.33;;;;;;;49.74;6.32;100385.75;5093204;28;20039;-72
2021/06/18 10:22:38;;;;;;;2.65;1.40;;;;;;;50.96;5.58;100388.78;5111297;28;20051;-70
2021/06/18 10:25:07;;;;;;;11.15;1.60;;;;;;;51.80;5.07;100376.94;5109936;28;20495;-71
2021/06/18 10:27:46;;;;;;;4.55;1.20;;;;;;;52.05;5.26;100376.75;5093944;28;20138;-71
2021/06/18 10:30:33;;;;;;;4.30;1.15;;;;;;;51.20;5.30;100377.34;5092996;28;20043;-71
2021/06/18 10:33:01;;;;;;;4.57;1.27;;;;;;;51.14;5.37;100381.84;5093082;28;20515;-72
2021/06/18 10:35:46;;;;;;;11.23;1.40;;;;;;;50.99;5.43;100390.78;5109935;28;20293;-71
2021/06/18 10:38:33;;;;;;;1.98;0.80;;;;;;;49.34;5.86;100371.94;5092950;28;20035;-71
2021/06/18 10:41:04;;;;;;;2.65;0.90;;;;;;;47.31;6.99;100363.69;5082118;28;20052;-71
2021/06/18 10:43:50;;;;;;;2.78;0.90;;;;;;;47.22;7.03;100346.31;5111349;28;20040;-71
2021/06/18 10:46:22;;;;;;;4.55;1.20;;;;;;;47.20;7.42;100362.75;5075941;28;20039;-72
2021/06/18 10:48:51;;;;;;;4.70;0.95;;;;;;;46.74;7.42;100357.72;5092669;28;20043;-72
2021/06/18 10:51:42;;;;;;;10.68;1.27;;;;;;;45.63;8.15;100366.78;5109910;28;20047;-71
2021/06/18 10:54:25;;;;;;;6.70;1.10;;;;;;;45.04;8.61;100360.84;5083648;28;20047;-71
2021/06/18 10:57:00;;;;;;;1.85;0.80;;;;;;;45.27;8.11;100364.50;5110937;28;20124;-70
2021/06/18 10:59:38;;;;;;;5.75;1.35;;;;;;;44.96;8.84;100361.84;5109627;28;20048;-71
2021/06/18 11:02:19;;;;;;;2.55;0.80;;;;;;;44.08;8.90;100360.66;5092686;28;20050;-70
2021/06/18 11:04:45;;;;;;;2.28;1.42;;;;;;;43.07;9.96;100356.69;5109666;28;20040;-72
2021/06/18 11:07:20;;;;;;;3.03;1.13;;;;;;;42.41;10.26;100349.13;5092615;28;20051;-71
2021/06/18 11:09:47;;;;;;;5.35;1.20;;;;;;;41.95;10.69;100352.41;5092999;28;20089;-71
2021/06/18 11:12:25;;;;;;;10.32;1.00;;;;;;;40.85;11.61;100346.81;5111026;28;20372;-71
2021/06/18 11:14:56;;;;;;;3.00;1.20;;;;;;;39.36;12.82;100339.09;5109342;28;20043;-71
2021/06/18 11:17:37;;;;;;;4.07;0.90;;;;;;;38.55;13.37;100335.38;5075759;28;20048;-70
2021/06/18 11:20:05;;;;;;;3.85;0.95;;;;;;;37.23;14.43;100324.75;5091402;28;20134;-70
2021/06/18 11:22:55;;;;;;;4.05;0.95;;;;;;;35.93;15.65;100322.25;5089776;28;20414;-70
2021/06/18 11:25:37;;;;;;;2.25;1.05;;;;;;;35.14;16.36;100331.72;5067070;28;20044;-70
2021/06/18 11:28:22;;;;;;;7.05;1.05;;;;;;;33.99;17.42;100315.75;5066714;28;20159;-70
2021/06/18 11:31:06;;;;;;;1.60;0.90;;;;;;;33.14;18.52;100324.06;5067217;28;20158;-70
2021/06/18 11:36:25;;;;;;;1.00;0.88;;;;;;;32.13;20.30;100335.75;5069241;28;20056;-70
2021/06/18 11:38:56;;;;;;;5.15;1.00;;;;;;;31.57;20.53;100334.25;5068856;28;20044;-69